createdAt,value
2019-05-21T00:09:33.979Z,4.87
2019-05-21T00:40:12.558Z,6.70
2019-05-21T01:10:15.166Z,5.90
2019-05-21T01:40:17.773Z,7.17
2019-05-21T02:10:20.385Z,6.10
2019-05-21T02:40:22.992Z,8.23
2019-05-21T03:10:26.711Z,13.00
2019-05-21T03:40:29.314Z,10.40
2019-05-21T04:10:31.931Z,9.38
2019-05-21T04:40:34.542Z,8.78
2019-05-21T05:10:37.193Z,9.63
2019-05-21T05:40:39.782Z,11.12
2019-05-21T06:10:42.463Z,14.70
2019-05-21T06:40:45.110Z,10.65
2019-05-21T07:10:47.756Z,7.22
2019-05-21T07:40:50.369Z,4.47
2019-05-21T08:10:53.003Z,5.10
2019-05-21T08:40:55.748Z,2.83
2019-05-21T09:10:59.319Z,2.85
2019-05-21T09:41:01.961Z,1.40
2019-05-21T10:11:07.477Z,1.27
2019-05-21T10:41:10.102Z,1.25
2019-05-21T11:11:12.726Z,1.92
2019-05-21T11:41:15.403Z,0.88
2019-05-21T12:11:17.965Z,1.87
2019-05-21T12:41:20.585Z,1.37
2019-05-21T13:11:23.227Z,2.12
2019-05-21T13:41:26.139Z,2.67
2019-05-21T14:11:28.767Z,2.30
2019-05-21T14:41:31.668Z,2.27
2019-05-21T15:11:34.296Z,1.90
2019-05-21T15:41:36.929Z,2.05
2019-05-21T16:11:39.573Z,1.90
2019-05-21T16:41:45.186Z,3.83
2019-05-21T17:11:59.059Z,3.05
2019-05-21T17:41:51.510Z,3.25
2019-05-21T18:11:54.261Z,4.00
2019-05-21T18:41:56.964Z,3.58
2019-05-21T19:12:00.523Z,7.67
2019-05-21T19:42:03.470Z,6.05
2019-05-21T20:12:07.352Z,6.67
2019-05-21T20:42:10.192Z,6.08
2019-05-21T21:12:12.894Z,7.70
2019-05-21T21:42:15.886Z,5.67
2019-05-21T22:12:18.616Z,8.00
2019-05-21T22:42:21.371Z,10.05
2019-05-21T23:12:23.998Z,8.45
2019-05-21T23:42:29.905Z,9.10
